Time;durP1;ratioP1;P1;durP2;ratioP2;P2;SDS_P1;SDS_P2;PMS_P1;PMS_P2;Temp;Humidity;BMP_temperature;BMP_pressure;BME280_temperature;BME280_humidity;BME280_pressure;Samples;Min_cycle;Max_cycle;Signal;HPM_P1;HPM_P2
2022/08/24 00:01:28;;;;;;;8.95;6.38;;;;;;;;;;5037254;28;20172;-66
2022/08/24 00:03:56;;;;;;;11.40;6.70;;;;;;;;;;5036282;28;20163;-66
2022/08/24 00:06:21;;;;;;;10.25;6.15;;;;;;;;;;5036165;28;20171;-67
2022/08/24 00:08:47;;;;;;;10.50;6.28;;;;;;;;;;5017548;28;20551;-67
2022/08/24 00:11:12;;;;;;;10.45;6.07;;;;;;;;;;5010666;28;20212;-67
2022/08/24 00:13:37;;;;;;;8.45;6.13;;;;;;;;;;5007474;28;20173;-65
2022/08/24 00:16:03;;;;;;;8.40;5.82;;;;;;;;;;5022740;28;20184;-65
2022/08/24 00:18:29;;;;;;;12.38;6.40;;;;;;;;;;4997040;28;20177;-65
2022/08/24 00:20:55;;;;;;;12.20;6.78;;;;;;;;;;5018260;28;20180;-66
2022/08/24 00:23:20;;;;;;;12.40;6.30;;;;;;;;;;5018199;28;20174;-66
2022/08/24 00:25:46;;;;;;;11.00;6.90;;;;;;;;;;5015164;28;20181;-66
2022/08/24 00:28:11;;;;;;;10.90;5.82;;;;;;;;;;5024749;28;20191;-67
2022/08/24 00:30:36;;;;;;;8.57;5.55;;;;;;;;;;5025919;28;20214;-66
2022/08/24 00:33:02;;;;;;;8.48;5.72;;;;;;;;;;5025908;28;20187;-67
2022/08/24 00:35:27;;;;;;;10.05;5.72;;;;;;;;;;5022764;28;20176;-67
2022/08/24 00:37:52;;;;;;;8.40;5.35;;;;;;;;;;5015319;28;20259;-67
2022/08/24 00:40:23;;;;;;;9.23;5.32;;;;;;;;;;5002436;28;20223;-66
2022/08/24 00:42:49;;;;;;;10.77;5.57;;;;;;;;;;5006888;28;20226;-67
2022/08/24 00:45:15;;;;;;;11.32;5.60;;;;;;;;;;5015841;28;20191;-67
2022/08/24 00:47:43;;;;;;;12.32;5.20;;;;;;;;;;5022757;28;20694;-67
2022/08/24 00:50:09;;;;;;;9.00;5.28;;;;;;;;;;5024809;28;20245;-67
2022/08/24 00:52:37;;;;;;;10.80;5.63;;;;;;;;;;5024514;28;20234;-67
2022/08/24 00:55:06;;;;;;;12.65;5.90;;;;;;;;;;5026336;28;20179;-67
2022/08/24 00:57:32;;;;;;;6.28;4.78;;;;;;;;;;5024879;28;20208;-67
2022/08/24 00:59:59;;;;;;;9.82;6.45;;;;;;;;;;5023869;28;20229;-66
2022/08/24 01:02:25;;;;;;;9.88;5.38;;;;;;;;;;5008317;28;20184;-67
2022/08/24 01:04:55;;;;;;;8.98;5.22;;;;;;;;;;5017978;28;20182;-66
2022/08/24 01:07:21;;;;;;;10.65;5.22;;;;;;;;;;5017055;28;20191;-66
2022/08/24 01:09:47;;;;;;;9.27;5.53;;;;;;;;;;5018973;28;20732;-66
2022/08/24 01:12:13;;;;;;;9.02;5.70;;;;;;;;;;5023969;28;20697;-66
2022/08/24 01:14:38;;;;;;;8.48;5.47;;;;;;;;;;5025337;28;20643;-66
2022/08/24 01:19:48;;;;;;;10.32;6.05;;;;;;;;;;5024516;28;20179;-66
2022/08/24 01:22:24;;;;;;;9.38;5.85;;;;;;;;;;5024526;28;20179;-66
2022/08/24 01:24:49;;;;;;;10.95;5.70;;;;;;;;;;5021664;28;20253;-66
2022/08/24 01:27:15;;;;;;;13.45;6.95;;;;;;;;;;5017428;28;20176;-67
2022/08/24 01:29:40;;;;;;;10.82;6.85;;;;;;;;;;5016131;28;20188;-66
2022/08/24 01:32:06;;;;;;;14.27;6.70;;;;;;;;;;5019726;28;20649;-67
2022/08/24 01:34:31;;;;;;;9.70;6.82;;;;;;;;;;5024235;28;20591;-66
2022/08/24 01:36:58;;;;;;;12.90;7.07;;;;;;;;;;5010307;28;20241;-66
2022/08/24 01:39:28;;;;;;;8.68;6.20;;;;;;;;;;5023576;28;20183;-66
2022/08/24 01:41:53;;;;;;;8.95;6.10;;;;;;;;;;5023530;28;20180;-66
2022/08/24 01:44:19;;;;;;;9.55;6.90;;;;;;;;;;5023750;28;20574;-66
2022/08/24 01:46:45;;;;;;;12.90;8.00;;;;;;;;;;5025197;28;20232;-66
2022/08/24 01:49:11;;;;;;;11.75;7.60;;;;;;;;;;5016521;28;20180;-66
2022/08/24 01:51:36;;;;;;;10.80;7.40;;;;;;;;;;5017145;28;20215;-66
2022/08/24 01:54:02;;;;;;;10.82;8.00;;;;;;;;;;5017068;28;20275;-67
2022/08/24 01:56:27;;;;;;;9.70;7.07;;;;;;;;;;5023437;28;20262;-66
2022/08/24 01:58:53;;;;;;;9.80;6.80;;;;;;;;;;5023891;28;20230;-67
2022/08/24 02:01:18;;;;;;;9.98;7.10;;;;;;;;;;5018914;28;20169;-66
2022/08/24 02:03:43;;;;;;;12.55;8.20;;;;;;;;;;5023555;28;20747;-66
2022/08/24 02:06:09;;;;;;;12.88;8.50;;;;;;;;;;5024423;28;20179;-67
2022/08/24 02:08:35;;;;;;;12.80;8.38;;;;;;;;;;5024341;28;20176;-66
2022/08/24 02:11:00;;;;;;;12.95;8.25;;;;;;;;;;5019670;28;20212;-67
2022/08/24 02:13:27;;;;;;;10.88;8.20;;;;;;;;;;5016703;28;20238;-66
2022/08/24 02:15:52;;;;;;;11.07;7.90;;;;;;;;;;5013519;28;20651;-66
2022/08/24 02:18:18;;;;;;;11.63;8.27;;;;;;;;;;5018998;28;20187;-66
2022/08/24 02:20:44;;;;;;;11.10;7.50;;;;;;;;;;5023364;28;20194;-66
2022/08/24 02:23:09;;;;;;;11.57;8.55;;;;;;;;;;5038950;28;20573;-66
2022/08/24 02:25:34;;;;;;;13.07;9.20;;;;;;;;;;5024268;28;20303;-66
2022/08/24 02:28:00;;;;;;;12.57;9.05;;;;;;;;;;5024557;28;20742;-66
2022/08/24 02:30:25;;;;;;;13.85;9.57;;;;;;;;;;5023524;28;20619;-66
2022/08/24 02:32:51;;;;;;;13.32;10.38;;;;;;;;;;5020506;28;20226;-66
2022/08/24 02:35:16;;;;;;;14.90;11.18;;;;;;;;;;5009038;28;20226;-67
2022/08/24 02:37:42;;;;;;;13.30;9.93;;;;;;;;;;4996407;28;20173;-67
2022/08/24 02:40:08;;;;;;;12.73;9.85;;;;;;;;;;4998702;28;20181;-66
2022/08/24 02:42:34;;;;;;;13.32;10.15;;;;;;;;;;5024190;28;20564;-66
2022/08/24 02:45:00;;;;;;;14.18;9.98;;;;;;;;;;5010563;28;20177;-66
2022/08/24 02:47:25;;;;;;;11.57;9.52;;;;;;;;;;5004512;28;20239;-66
2022/08/24 02:49:51;;;;;;;15.25;10.35;;;;;;;;;;5004181;28;20181;-66
2022/08/24 02:52:16;;;;;;;15.23;10.48;;;;;;;;;;5004308;28;20540;-67
2022/08/24 02:54:41;;;;;;;16.42;10.98;;;;;;;;;;5022225;28;20184;-66
2022/08/24 02:57:07;;;;;;;14.63;10.50;;;;;;;;;;5016516;28;20203;-66
2022/08/24 02:59:32;;;;;;;12.75;10.05;;;;;;;;;;5013892;28;20696;-66
2022/08/24 03:01:57;;;;;;;14.40;11.93;;;;;;;;;;5004618;28;20271;-66
2022/08/24 03:04:23;;;;;;;15.27;10.98;;;;;;;;;;5003175;28;20786;-66
2022/08/24 03:06:48;;;;;;;13.43;11.43;;;;;;;;;;5003483;28;20173;-66
2022/08/24 03:09:14;;;;;;;15.20;11.18;;;;;;;;;;5004492;28;20223;-66
2022/08/24 03:11:39;;;;;;;13.90;11.35;;;;;;;;;;5004167;28;20527;-66
2022/08/24 03:14:04;;;;;;;15.38;10.82;;;;;;;;;;5003836;28;20180;-66
2022/08/24 03:16:30;;;;;;;16.30;11.55;;;;;;;;;;5003843;28;20651;-66
2022/08/24 03:18:55;;;;;;;14.13;11.23;;;;;;;;;;5017887;28;20176;-66
2022/08/24 03:21:21;;;;;;;18.48;11.52;;;;;;;;;;5013919;28;20290;-66
2022/08/24 03:23:46;;;;;;;14.38;12.88;;;;;;;;;;5015312;28;20797;-67
2022/08/24 03:26:11;;;;;;;15.13;13.20;;;;;;;;;;5018870;28;20191;-66
2022/08/24 03:28:37;;;;;;;17.83;13.38;;;;;;;;;;5023583;28;20532;-66
2022/08/24 03:31:02;;;;;;;14.07;12.57;;;;;;;;;;5023260;28;20203;-66
2022/08/24 03:33:28;;;;;;;14.85;12.90;;;;;;;;;;5022097;28;20262;-66
2022/08/24 03:35:54;;;;;;;17.10;13.15;;;;;;;;;;5016285;28;20180;-67
2022/08/24 03:38:20;;;;;;;14.45;12.45;;;;;;;;;;5003760;28;20263;-66
2022/08/24 03:40:45;;;;;;;15.90;13.27;;;;;;;;;;5001422;28;20279;-66
2022/08/24 03:43:44;;;;;;;14.68;13.20;;;;;;;;;;5013880;28;20183;-66
2022/08/24 03:45:56;;;;;;;17.83;13.65;;;;;;;;;;5015053;28;20262;-66
2022/08/24 03:48:21;;;;;;;19.42;14.13;;;;;;;;;;5016651;28;20195;-66
2022/08/24 03:50:46;;;;;;;14.98;13.20;;;;;;;;;;5022959;28;20281;-66
2022/08/24 03:53:12;;;;;;;18.85;14.73;;;;;;;;;;5022577;28;21158;-66
2022/08/24 03:55:37;;;;;;;17.48;15.10;;;;;;;;;;5022553;28;20583;-66
2022/08/24 03:58:02;;;;;;;16.70;14.27;;;;;;;;;;5023047;28;20251;-66
2022/08/24 04:00:28;;;;;;;17.38;14.10;;;;;;;;;;5022869;28;20186;-66
2022/08/24 04:02:53;;;;;;;16.30;14.00;;;;;;;;;;5004382;28;20187;-66
2022/08/24 04:05:18;;;;;;;16.88;14.73;;;;;;;;;;5013509;28;20183;-66
2022/08/24 04:07:44;;;;;;;17.08;14.85;;;;;;;;;;5013845;28;20184;-66
2022/08/24 04:10:11;;;;;;;18.88;15.75;;;;;;;;;;5014701;28;20203;-66
2022/08/24 04:12:37;;;;;;;19.70;16.85;;;;;;;;;;5017770;28;20176;-66
2022/08/24 04:15:02;;;;;;;20.48;16.15;;;;;;;;;;5007223;28;20256;-66
2022/08/24 04:17:29;;;;;;;19.25;16.40;;;;;;;;;;5027882;28;20180;-65
2022/08/24 04:20:00;;;;;;;20.23;16.38;;;;;;;;;;5032640;28;20168;-63
2022/08/24 04:22:26;;;;;;;21.05;17.13;;;;;;;;;;5031775;28;20457;-63
2022/08/24 04:24:52;;;;;;;20.45;15.50;;;;;;;;;;5033049;28;20172;-64
2022/08/24 04:27:17;;;;;;;22.73;18.42;;;;;;;;;;5031886;28;20183;-63
2022/08/24 04:29:42;;;;;;;21.63;19.40;;;;;;;;;;5031555;28;20408;-65
2022/08/24 04:32:08;;;;;;;22.65;19.02;;;;;;;;;;5030728;28;20168;-65
2022/08/24 04:34:33;;;;;;;21.45;18.10;;;;;;;;;;5031544;28;20206;-65
2022/08/24 04:36:59;;;;;;;21.13;18.55;;;;;;;;;;5030093;28;20161;-65
2022/08/24 04:39:24;;;;;;;18.75;16.75;;;;;;;;;;5030369;28;20172;-64
2022/08/24 04:41:49;;;;;;;20.55;18.02;;;;;;;;;;5031151;28;20624;-64
2022/08/24 04:44:15;;;;;;;19.80;16.48;;;;;;;;;;5033918;28;20176;-65
2022/08/24 04:46:40;;;;;;;20.33;17.17;;;;;;;;;;5035613;28;20752;-65
2022/08/24 04:49:07;;;;;;;20.30;18.15;;;;;;;;;;5035792;28;20160;-65
2022/08/24 04:51:32;;;;;;;20.23;18.13;;;;;;;;;;5034917;28;20560;-65
2022/08/24 04:53:57;;;;;;;20.90;18.00;;;;;;;;;;5035002;28;20413;-64
2022/08/24 04:56:23;;;;;;;20.83;18.63;;;;;;;;;;5035920;28;20206;-64
2022/08/24 04:58:49;;;;;;;20.92;18.80;;;;;;;;;;5034945;28;20187;-63
2022/08/24 05:01:18;;;;;;;20.92;18.73;;;;;;;;;;5035832;28;20164;-63
2022/08/24 05:03:44;;;;;;;18.55;16.65;;;;;;;;;;5032674;28;20532;-63
2022/08/24 05:06:10;;;;;;;19.60;17.50;;;;;;;;;;5034394;28;20168;-63
2022/08/24 05:08:36;;;;;;;20.23;17.88;;;;;;;;;;5033908;28;20646;-64
2022/08/24 05:11:02;;;;;;;19.00;16.80;;;;;;;;;;5036229;28;20754;-63
2022/08/24 05:13:27;;;;;;;18.52;16.27;;;;;;;;;;5033741;28;20242;-63
2022/08/24 05:15:52;;;;;;;17.63;15.77;;;;;;;;;;5035785;28;20164;-63
2022/08/24 05:18:17;;;;;;;16.98;15.18;;;;;;;;;;5035487;28;20206;-63
2022/08/24 05:20:44;;;;;;;16.33;13.60;;;;;;;;;;5035100;28;20498;-62
2022/08/24 05:23:10;;;;;;;17.98;15.95;;;;;;;;;;5034554;28;20168;-63
2022/08/24 05:25:36;;;;;;;16.55;14.40;;;;;;;;;;5033433;28;20529;-63
2022/08/24 05:28:01;;;;;;;16.15;13.07;;;;;;;;;;5034816;28;20226;-63
2022/08/24 05:30:26;;;;;;;14.43;12.30;;;;;;;;;;5035073;28;20192;-64
2022/08/24 05:32:52;;;;;;;16.25;14.10;;;;;;;;;;5033065;28;20203;-64
2022/08/24 05:35:17;;;;;;;17.20;14.95;;;;;;;;;;5034824;28;20251;-64
2022/08/24 05:37:42;;;;;;;16.42;14.73;;;;;;;;;;5032763;28;20179;-64
2022/08/24 05:40:09;;;;;;;17.95;13.63;;;;;;;;;;5032363;28;20226;-64
2022/08/24 05:42:34;;;;;;;16.77;13.77;;;;;;;;;;5034445;28;20187;-61
2022/08/24 05:45:00;;;;;;;15.63;13.18;;;;;;;;;;5034888;28;20164;-61
2022/08/24 05:47:25;;;;;;;16.67;13.82;;;;;;;;;;5033782;28;20227;-61
2022/08/24 05:49:52;;;;;;;18.80;14.85;;;;;;;;;;5033225;28;20172;-61
2022/08/24 05:52:18;;;;;;;15.52;13.88;;;;;;;;;;5034960;28;20198;-62
2022/08/24 05:54:44;;;;;;;16.67;14.88;;;;;;;;;;5029705;28;20207;-62
2022/08/24 05:57:10;;;;;;;15.15;13.57;;;;;;;;;;5033249;28;20571;-62
2022/08/24 05:59:35;;;;;;;18.27;14.40;;;;;;;;;;5034328;28;20250;-62
2022/08/24 06:02:00;;;;;;;16.98;13.18;;;;;;;;;;5030143;28;20297;-62
2022/08/24 06:04:27;;;;;;;14.85;13.23;;;;;;;;;;5032240;28;20168;-62
2022/08/24 06:06:53;;;;;;;15.23;13.63;;;;;;;;;;5030422;28;20164;-62
2022/08/24 06:09:18;;;;;;;17.25;13.68;;;;;;;;;;5027258;28;20191;-62
2022/08/24 06:11:44;;;;;;;16.08;13.80;;;;;;;;;;5031968;28;20274;-62
2022/08/24 06:14:11;;;;;;;15.27;12.10;;;;;;;;;;5030071;28;20175;-62
2022/08/24 06:16:37;;;;;;;18.77;13.13;;;;;;;;;;5031615;28;20188;-67
2022/08/24 06:19:02;;;;;;;15.25;13.13;;;;;;;;;;5027659;28;20183;-72
2022/08/24 06:21:28;;;;;;;16.77;14.60;;;;;;;;;;5028637;28;20172;-72
2022/08/24 06:23:53;;;;;;;14.95;13.35;;;;;;;;;;5028648;28;20254;-72
2022/08/24 06:29:02;;;;;;;17.80;14.40;;;;;;;;;;5028707;28;20669;-72
2022/08/24 06:31:28;;;;;;;16.60;14.90;;;;;;;;;;5031953;28;20196;-72
2022/08/24 06:33:53;;;;;;;16.23;14.52;;;;;;;;;;5032094;28;20200;-72
2022/08/24 06:36:19;;;;;;;18.67;15.32;;;;;;;;;;5030316;28;20199;-72
2022/08/24 06:38:44;;;;;;;17.67;15.80;;;;;;;;;;5031787;28;20167;-72
2022/08/24 06:41:09;;;;;;;19.17;15.57;;;;;;;;;;5032538;28;20183;-72
2022/08/24 06:43:35;;;;;;;15.85;13.57;;;;;;;;;;5033689;28;20183;-71
2022/08/24 06:46:00;;;;;;;17.05;15.15;;;;;;;;;;5034195;28;20559;-71
2022/08/24 06:48:25;;;;;;;18.10;15.95;;;;;;;;;;5032832;28;20175;-71
2022/08/24 06:50:52;;;;;;;18.95;17.05;;;;;;;;;;5032789;28;20329;-71
2022/08/24 06:53:18;;;;;;;19.50;17.35;;;;;;;;;;5033436;28;20160;-71
2022/08/24 06:55:44;;;;;;;21.17;17.40;;;;;;;;;;5031977;28;20623;-72
2022/08/24 06:58:09;;;;;;;25.00;19.65;;;;;;;;;;5032138;28;20245;-72
2022/08/24 07:00:35;;;;;;;20.65;18.45;;;;;;;;;;5047092;28;20168;-72
2022/08/24 07:03:00;;;;;;;19.00;17.00;;;;;;;;;;5033797;28;20255;-72
2022/08/24 07:05:26;;;;;;;23.83;18.60;;;;;;;;;;5032842;28;20174;-72
2022/08/24 07:07:51;;;;;;;21.05;17.73;;;;;;;;;;5030917;28;20203;-72
2022/08/24 07:10:16;;;;;;;18.23;15.93;;;;;;;;;;5030560;28;20687;-71
2022/08/24 07:12:42;;;;;;;19.67;16.90;;;;;;;;;;5029385;28;20666;-72
2022/08/24 07:15:07;;;;;;;21.60;17.98;;;;;;;;;;5033367;28;20175;-70
2022/08/24 07:17:32;;;;;;;19.27;17.35;;;;;;;;;;5031156;28;20172;-69
2022/08/24 07:19:58;;;;;;;20.15;14.90;;;;;;;;;;5019330;28;20172;-69
2022/08/24 07:22:23;;;;;;;19.85;15.57;;;;;;;;;;5032939;28;20198;-69
2022/08/24 07:24:49;;;;;;;20.10;16.23;;;;;;;;;;5033313;28;20160;-69
2022/08/24 07:27:14;;;;;;;17.50;15.60;;;;;;;;;;5032568;28;20172;-69
2022/08/24 07:29:40;;;;;;;19.30;16.10;;;;;;;;;;5033248;28;20172;-69
2022/08/24 07:32:05;;;;;;;19.60;16.00;;;;;;;;;;5032445;28;20211;-69
2022/08/24 07:34:31;;;;;;;16.40;14.15;;;;;;;;;;5033398;28;20170;-69
2022/08/24 07:36:59;;;;;;;20.30;14.93;;;;;;;;;;5031217;28;20183;-68
2022/08/24 07:39:24;;;;;;;17.42;15.10;;;;;;;;;;5030837;28;20156;-69
2022/08/24 07:41:49;;;;;;;14.57;12.57;;;;;;;;;;5033175;28;20233;-69
2022/08/24 07:44:15;;;;;;;18.02;12.63;;;;;;;;;;5032934;28;20651;-69
2022/08/24 07:46:40;;;;;;;15.95;12.38;;;;;;;;;;5032115;28;20230;-68
2022/08/24 07:49:06;;;;;;;17.08;13.23;;;;;;;;;;5032649;28;20251;-67
2022/08/24 07:51:31;;;;;;;14.63;10.57;;;;;;;;;;5021994;28;20731;-73
2022/08/24 07:53:57;;;;;;;16.85;13.30;;;;;;;;;;5025388;28;20243;-77
2022/08/24 07:56:22;;;;;;;13.38;11.98;;;;;;;;;;5032967;28;20265;-77
2022/08/24 07:58:47;;;;;;;15.63;13.10;;;;;;;;;;5033095;28;20678;-78
2022/08/24 08:01:12;;;;;;;18.02;11.57;;;;;;;;;;5032149;28;20179;-78
2022/08/24 08:03:38;;;;;;;12.13;8.55;;;;;;;;;;5032841;28;20160;-75
2022/08/24 08:06:04;;;;;;;12.20;9.90;;;;;;;;;;5032566;28;20168;-78
2022/08/24 08:08:31;;;;;;;14.68;8.82;;;;;;;;;;5028519;28;20171;-75
2022/08/24 08:10:57;;;;;;;10.90;6.72;;;;;;;;;;5031921;28;20283;-74
2022/08/24 08:13:22;;;;;;;11.02;7.57;;;;;;;;;;5032704;28;20251;-73
2022/08/24 08:15:47;;;;;;;9.90;6.90;;;;;;;;;;5031879;28;20271;-73
2022/08/24 08:18:13;;;;;;;9.65;4.50;;;;;;;;;;5033449;28;20204;-75
2022/08/24 08:20:38;;;;;;;9.80;5.47;;;;;;;;;;5036534;28;20215;-73
2022/08/24 08:25:50;;;;;;;8.25;4.70;;;;;;;;;;5036529;28;20202;-73
2022/08/24 08:28:15;;;;;;;8.95;4.45;;;;;;;;;;5034615;28;20213;-74
2022/08/24 08:30:40;;;;;;;7.80;4.55;;;;;;;;;;5036705;28;20204;-71
2022/08/24 08:33:06;;;;;;;8.23;4.68;;;;;;;;;;5036431;28;20209;-72
2022/08/24 08:35:32;;;;;;;8.38;3.47;;;;;;;;;;5035527;28;20255;-73
2022/08/24 08:37:58;;;;;;;9.73;3.00;;;;;;;;;;5033851;28;20168;-69
2022/08/24 08:40:29;;;;;;;11.05;4.10;;;;;;;;;;5035472;28;20164;-69
2022/08/24 08:42:58;;;;;;;7.68;3.92;;;;;;;;;;5035694;28;20198;-67
2022/08/24 08:45:28;;;;;;;9.07;4.32;;;;;;;;;;5035239;28;20168;-73
2022/08/24 08:48:00;;;;;;;8.05;3.80;;;;;;;;;;5035021;28;20685;-70
2022/08/24 08:50:27;;;;;;;7.30;4.57;;;;;;;;;;5034225;28;20716;-69
2022/08/24 08:53:04;;;;;;;10.65;4.70;;;;;;;;;;5035517;28;20681;-72
2022/08/24 08:55:31;;;;;;;8.18;4.25;;;;;;;;;;5034698;28;20171;-70
2022/08/24 08:58:15;;;;;;;8.10;3.35;;;;;;;;;;5034312;28;20168;-70
2022/08/24 09:00:42;;;;;;;6.63;3.47;;;;;;;;;;5034872;28;20183;-69
2022/08/24 09:03:10;;;;;;;6.45;2.92;;;;;;;;;;5036033;28;20164;-70
2022/08/24 09:05:47;;;;;;;10.70;3.45;;;;;;;;;;5035427;28;20164;-69
2022/08/24 09:08:17;;;;;;;8.32;2.58;;;;;;;;;;5032375;28;20168;-75
2022/08/24 09:10:46;;;;;;;7.85;2.88;;;;;;;;;;5033840;28;20254;-73
2022/08/24 09:13:21;;;;;;;8.48;2.70;;;;;;;;;;5035843;28;20225;-75
2022/08/24 09:15:47;;;;;;;7.45;2.72;;;;;;;;;;5045419;28;20228;-72
2022/08/24 09:18:16;;;;;;;5.32;1.95;;;;;;;;;;5054993;28;20171;-71
2022/08/24 09:20:42;;;;;;;5.38;1.83;;;;;;;;;;5054574;28;20175;-69
2022/08/24 09:23:12;;;;;;;1.88;1.38;;;;;;;;;;5055297;28;20189;-74
2022/08/24 09:25:40;;;;;;;3.92;1.60;;;;;;;;;;5054376;28;20615;-74
2022/08/24 09:28:12;;;;;;;5.18;1.42;;;;;;;;;;5038449;28;20222;-73
2022/08/24 09:30:43;;;;;;;1.08;0.90;;;;;;;;;;5034986;28;20196;-71
2022/08/24 09:33:15;;;;;;;2.65;1.05;;;;;;;;;;5033741;28;20199;-71
2022/08/24 09:35:49;;;;;;;3.90;1.40;;;;;;;;;;5034836;28;20707;-71
2022/08/24 09:38:25;;;;;;;2.20;1.40;;;;;;;;;;5032964;28;20172;-69
2022/08/24 09:40:59;;;;;;;4.78;1.63;;;;;;;;;;5033732;28;20159;-71
2022/08/24 09:43:30;;;;;;;5.03;2.00;;;;;;;;;;5033916;28;20167;-70
2022/08/24 09:46:09;;;;;;;4.57;1.60;;;;;;;;;;5034310;28;20172;-70
2022/08/24 09:48:43;;;;;;;4.38;1.50;;;;;;;;;;5034085;28;20172;-70
2022/08/24 09:51:13;;;;;;;5.43;1.77;;;;;;;;;;5033529;28;20203;-69
2022/08/24 09:54:00;;;;;;;2.42;1.52;;;;;;;;;;5032968;28;20682;-70
2022/08/24 09:56:31;;;;;;;3.80;1.70;;;;;;;;;;5033623;28;20172;-68
2022/08/24 09:59:02;;;;;;;3.42;1.58;;;;;;;;;;5035118;28;20170;-70
2022/08/24 10:01:46;;;;;;;6.20;1.50;;;;;;;;;;5034071;28;20259;-70
2022/08/24 10:04:18;;;;;;;4.40;1.60;;;;;;;;;;5035208;28;20168;-67
2022/08/24 10:06:48;;;;;;;4.35;1.48;;;;;;;;;;5031590;28;20156;-71
2022/08/24 10:09:14;;;;;;;1.38;1.20;;;;;;;;;;5031570;28;20164;-69
2022/08/24 10:11:44;;;;;;;3.20;1.77;;;;;;;;;;5033963;28;20735;-67
2022/08/24 10:14:18;;;;;;;2.92;1.40;;;;;;;;;;5032720;28;20251;-70
2022/08/24 10:16:49;;;;;;;4.70;1.20;;;;;;;;;;5033462;28;20216;-67
2022/08/24 10:19:18;;;;;;;3.25;1.20;;;;;;;;;;5033417;28;20225;-67
2022/08/24 10:21:43;;;;;;;2.75;1.30;;;;;;;;;;5032525;28;20199;-73
2022/08/24 10:24:14;;;;;;;3.30;1.10;;;;;;;;;;5026903;28;20199;-66
2022/08/24 10:26:56;;;;;;;6.22;1.70;;;;;;;;;;5033964;28;20525;-68
2022/08/24 10:29:31;;;;;;;4.38;1.30;;;;;;;;;;5032732;28;20222;-69
2022/08/24 10:32:02;;;;;;;1.92;1.30;;;;;;;;;;5033129;28;20755;-70
2022/08/24 10:34:33;;;;;;;1.85;1.23;;;;;;;;;;5033124;28;20175;-67
2022/08/24 10:37:17;;;;;;;4.80;1.35;;;;;;;;;;5029382;28;20233;-67
2022/08/24 10:40:01;;;;;;;4.00;1.33;;;;;;;;;;5032964;28;20171;-67
2022/08/24 10:45:34;;;;;;;6.10;1.30;;;;;;;;;;5033926;28;20214;-70
2022/08/24 10:48:03;;;;;;;3.47;1.50;;;;;;;;;;5032698;28;20228;-67
2022/08/24 10:50:34;;;;;;;3.88;1.40;;;;;;;;;;5033393;28;20232;-77
2022/08/24 10:53:03;;;;;;;4.10;1.60;;;;;;;;;;5032460;28;20183;-67
2022/08/24 10:55:29;;;;;;;4.60;1.80;;;;;;;;;;5032570;28;20171;-70
2022/08/24 10:57:58;;;;;;;3.85;1.55;;;;;;;;;;5032934;28;20175;-69
2022/08/24 11:00:25;;;;;;;6.07;1.75;;;;;;;;;;5032613;28;20634;-67
2022/08/24 11:03:03;;;;;;;5.22;1.90;;;;;;;;;;5033915;28;20168;-66
2022/08/24 11:05:29;;;;;;;3.63;1.50;;;;;;;;;;5033999;28;20163;-66
2022/08/24 11:07:57;;;;;;;5.28;2.08;;;;;;;;;;5031624;28;20214;-69
2022/08/24 11:10:23;;;;;;;5.13;1.80;;;;;;;;;;5031425;28;20210;-70
2022/08/24 11:12:49;;;;;;;7.07;2.00;;;;;;;;;;5033579;28;20327;-70
2022/08/24 11:15:17;;;;;;;4.47;1.90;;;;;;;;;;5033603;28;20668;-69
2022/08/24 11:17:55;;;;;;;6.53;1.70;;;;;;;;;;5033110;28;20184;-68
2022/08/24 11:20:29;;;;;;;4.15;1.65;;;;;;;;;;5033832;28;20657;-67
2022/08/24 11:22:57;;;;;;;5.80;2.35;;;;;;;;;;5033071;28;20179;-69
2022/08/24 11:25:25;;;;;;;4.55;2.20;;;;;;;;;;5031524;28;20168;-67
2022/08/24 11:27:51;;;;;;;4.90;2.00;;;;;;;;;;5033182;28;20597;-68
2022/08/24 11:30:16;;;;;;;3.50;1.65;;;;;;;;;;5033559;28;20165;-66
2022/08/24 11:32:44;;;;;;;6.35;2.20;;;;;;;;;;5032622;28;20194;-67
2022/08/24 11:35:10;;;;;;;5.38;2.10;;;;;;;;;;5032362;28;20168;-68
2022/08/24 11:37:36;;;;;;;4.00;1.85;;;;;;;;;;5030793;28;20180;-68
2022/08/24 11:40:03;;;;;;;4.38;1.58;;;;;;;;;;5031617;28;20168;-67
2022/08/24 11:42:36;;;;;;;2.80;1.50;;;;;;;;;;5033142;28;20172;-70
2022/08/24 11:45:07;;;;;;;3.95;1.38;;;;;;;;;;5032025;28;20201;-68
2022/08/24 11:47:36;;;;;;;4.93;1.80;;;;;;;;;;5031280;28;20373;-66
2022/08/24 11:50:07;;;;;;;3.67;1.58;;;;;;;;;;5033172;28;20164;-67
2022/08/24 11:52:51;;;;;;;3.28;1.38;;;;;;;;;;5032850;28;20164;-66
2022/08/24 11:55:18;;;;;;;4.43;1.42;;;;;;;;;;5039853;28;20265;-67
2022/08/24 11:57:46;;;;;;;2.17;1.10;;;;;;;;;;5038183;28;20594;-66
2022/08/24 12:00:14;;;;;;;3.05;1.00;;;;;;;;;;5037778;28;20236;-70
2022/08/24 12:02:41;;;;;;;1.75;1.10;;;;;;;;;;5039583;28;20172;-68
2022/08/24 12:05:12;;;;;;;3.42;1.10;;;;;;;;;;5039638;28;20168;-65
2022/08/24 12:07:41;;;;;;;6.18;1.13;;;;;;;;;;5035937;28;20168;-65
2022/08/24 12:10:22;;;;;;;5.07;1.23;;;;;;;;;;5036793;28;20571;-68
2022/08/24 12:12:50;;;;;;;2.92;1.00;;;;;;;;;;5039241;28;20190;-67
2022/08/24 12:15:17;;;;;;;6.50;1.30;;;;;;;;;;5038703;28;20175;-68
2022/08/24 12:17:45;;;;;;;1.73;1.00;;;;;;;;;;5038530;28;20180;-68
2022/08/24 12:20:17;;;;;;;3.85;1.10;;;;;;;;;;5038588;28;20210;-69
2022/08/24 12:22:42;;;;;;;3.05;1.55;;;;;;;;;;5037362;28;20168;-66
2022/08/24 12:26:00;;;;;;;2.38;1.10;;;;;;;;;;5039491;28;20502;-66
2022/08/24 12:27:53;;;;;;;2.47;1.20;;;;;;;;;;5038356;28;20172;-68
2022/08/24 12:30:18;;;;;;;4.25;1.23;;;;;;;;;;5039532;28;20210;-68
2022/08/24 12:32:52;;;;;;;3.83;1.20;;;;;;;;;;5039440;28;20183;-67
2022/08/24 12:35:21;;;;;;;2.65;1.10;;;;;;;;;;5037523;28;20176;-65
2022/08/24 12:37:48;;;;;;;3.97;1.40;;;;;;;;;;5035688;28;20172;-65
2022/08/24 12:40:28;;;;;;;4.60;1.30;;;;;;;;;;5037038;28;20274;-69
2022/08/24 12:42:55;;;;;;;5.80;1.27;;;;;;;;;;5037303;28;20172;-66
2022/08/24 12:45:21;;;;;;;2.45;1.30;;;;;;;;;;5037959;28;20255;-67
2022/08/24 12:47:53;;;;;;;4.25;1.40;;;;;;;;;;5039185;28;20235;-66
2022/08/24 12:50:24;;;;;;;2.33;1.40;;;;;;;;;;5038503;28;20175;-65
2022/08/24 12:52:56;;;;;;;4.75;1.20;;;;;;;;;;5038744;28;20176;-65
2022/08/24 12:55:24;;;;;;;3.25;1.23;;;;;;;;;;5038315;28;20168;-65
2022/08/24 12:57:52;;;;;;;2.13;1.05;;;;;;;;;;5037464;28;20202;-66
2022/08/24 13:00:19;;;;;;;3.80;1.20;;;;;;;;;;5038940;28;20628;-67
2022/08/24 13:02:45;;;;;;;3.45;1.27;;;;;;;;;;5038292;28;20167;-69
2022/08/24 13:05:12;;;;;;;2.63;1.13;;;;;;;;;;5034328;28;20226;-65
2022/08/24 13:07:39;;;;;;;3.45;1.30;;;;;;;;;;5033041;28;20540;-69
2022/08/24 13:10:07;;;;;;;3.15;1.20;;;;;;;;;;5033873;28;20167;-66
2022/08/24 13:12:37;;;;;;;2.72;1.25;;;;;;;;;;5035825;28;20223;-67
2022/08/24 13:15:20;;;;;;;4.22;1.27;;;;;;;;;;5035721;28;20180;-66
2022/08/24 13:17:45;;;;;;;6.28;1.20;;;;;;;;;;5034939;28;20187;-66
2022/08/24 13:20:22;;;;;;;3.83;1.20;;;;;;;;;;5036000;28;20164;-66
2022/08/24 13:23:04;;;;;;;3.75;1.40;;;;;;;;;;5035652;28;20258;-65
2022/08/24 13:25:40;;;;;;;4.40;1.10;;;;;;;;;;5034849;28;20582;-66
2022/08/24 13:28:07;;;;;;;2.00;1.40;;;;;;;;;;5035551;28;20179;-65
2022/08/24 13:30:34;;;;;;;4.13;1.17;;;;;;;;;;5035539;28;20556;-65
2022/08/24 13:33:02;;;;;;;5.38;1.35;;;;;;;;;;5033464;28;20574;-68
2022/08/24 13:35:34;;;;;;;6.97;1.58;;;;;;;;;;5034049;28;20168;-66
2022/08/24 13:38:19;;;;;;;2.28;1.30;;;;;;;;;;5031095;28;20175;-67
2022/08/24 13:40:45;;;;;;;3.03;1.10;;;;;;;;;;5034697;28;20172;-69
2022/08/24 13:43:15;;;;;;;3.38;1.20;;;;;;;;;;5035435;28;20175;-69
2022/08/24 13:45:52;;;;;;;3.65;1.20;;;;;;;;;;5033124;28;20213;-67
2022/08/24 13:48:19;;;;;;;2.70;1.10;;;;;;;;;;5034098;28;20195;-69
2022/08/24 13:50:45;;;;;;;5.38;1.40;;;;;;;;;;5033974;28;20242;-66
2022/08/24 13:53:29;;;;;;;2.92;1.17;;;;;;;;;;5034269;28;20196;-66
2022/08/24 13:56:10;;;;;;;10.40;1.95;;;;;;;;;;5034129;28;20207;-66
2022/08/24 13:58:38;;;;;;;2.40;1.50;;;;;;;;;;5035154;28;20198;-68
2022/08/24 14:01:22;;;;;;;2.88;1.45;;;;;;;;;;5033955;28;20327;-65
2022/08/24 14:03:48;;;;;;;3.47;1.33;;;;;;;;;;5035136;28;20186;-64
2022/08/24 14:06:45;;;;;;;6.00;1.55;;;;;;;;;;5033938;28;20254;-64
2022/08/24 14:09:26;;;;;;;4.20;1.50;;;;;;;;;;5032708;28;20176;-64
2022/08/24 14:11:57;;;;;;;1.65;1.02;;;;;;;;;;5033302;28;20290;-65
2022/08/24 14:14:38;;;;;;;4.35;1.33;;;;;;;;;;5034091;28;20187;-66
2022/08/24 14:20:01;;;;;;;4.68;1.30;;;;;;;;;;5013309;28;20658;-65
2022/08/24 14:22:35;;;;;;;3.35;1.20;;;;;;;;;;5013643;28;20632;-68
2022/08/24 14:25:03;;;;;;;3.92;1.23;;;;;;;;;;5027946;28;20627;-68
2022/08/24 14:27:35;;;;;;;5.78;1.35;;;;;;;;;;5031948;28;20630;-68
2022/08/24 14:30:28;;;;;;;3.50;1.20;;;;;;;;;;5034148;28;20180;-68
2022/08/24 14:32:59;;;;;;;2.83;1.60;;;;;;;;;;5033944;28;20221;-66
2022/08/24 14:35:34;;;;;;;3.15;1.10;;;;;;;;;;5033554;28;20172;-69
2022/08/24 14:38:03;;;;;;;3.40;1.20;;;;;;;;;;5032267;28;20262;-69
2022/08/24 14:40:32;;;;;;;3.70;1.42;;;;;;;;;;5031896;28;20172;-69
2022/08/24 14:43:00;;;;;;;4.47;1.30;;;;;;;;;;5032111;28;20164;-69
2022/08/24 14:45:43;;;;;;;3.47;1.10;;;;;;;;;;5033950;28;20243;-68
2022/08/24 14:48:12;;;;;;;5.55;1.17;;;;;;;;;;5032988;28;20227;-69
2022/08/24 14:50:38;;;;;;;6.50;1.40;;;;;;;;;;5034029;28;20196;-69